KSOW/SOW METAR and TAF weather

Enter ICAO airport designator
Station Type Date Time Source
KSOW METAR 2019/10/21 05:35 UTC NOAA

KSOW 210535Z AUTO 06003KT 10SM CLR 04/M17 A3017 RMK AO2


Station Type Date Time Source
KSOW Decoded METAR 2019/10/21 05:35 UTC NOAA

Show Low, Show Low Regional Airport, AZ, United States (KSOW) 34-15-55N 110-00-20W
Oct 21, 2019 - 01:35 AM EDT / 2019.10.21 0535 UTC
Wind: from the ENE (060 degrees) at 3 MPH (3 KT):0
Visibility: 10 mile(s):0
Sky conditions: clear
Temperature: 39 F (4 C)
Dew Point: 1 F (-17 C)
Relative Humidity: 19%
Pressure (altimeter): 30.17 in. Hg (1021 hPa)
ob: KSOW 210535Z AUTO 06003KT 10SM CLR 04/M17 A3017 RMK AO2
cycle: 5

Station Type Date Time Source
KSOW TAF UTC NOAA

Error!

Example: see airport list